sensor_id;sensor_type;location;lat;lon;timestamp;temperature;humidity
40340;DHT22;26044;50.864;20.658;2022-09-20T00:01:29;10.20;99.90
40340;DHT22;26044;50.864;20.658;2022-09-20T00:03:59;10.20;99.90
40340;DHT22;26044;50.864;20.658;2022-09-20T00:06:29;10.20;99.90
40340;DHT22;26044;50.864;20.658;2022-09-20T00:08:58;10.20;99.90
40340;DHT22;26044;50.864;20.658;2022-09-20T00:11:29;10.20;99.90
40340;DHT22;26044;50.864;20.658;2022-09-20T00:13:58;10.20;99.90
40340;DHT22;26044;50.864;20.658;2022-09-20T00:16:31;10.20;99.90
40340;DHT22;26044;50.864;20.658;2022-09-20T00:18:59;10.20;99.90
40340;DHT22;26044;50.864;20.658;2022-09-20T00:21:28;10.20;99.90
40340;DHT22;26044;50.864;20.658;2022-09-20T00:23:56;10.20;99.90
40340;DHT22;26044;50.864;20.658;2022-09-20T00:26:24;10.20;99.90
40340;DHT22;26044;50.864;20.658;2022-09-20T00:28:51;10.20;99.90
40340;DHT22;26044;50.864;20.658;2022-09-20T00:31:18;10.20;99.90
40340;DHT22;26044;50.864;20.658;2022-09-20T00:33:45;10.20;99.90
40340;DHT22;26044;50.864;20.658;2022-09-20T00:36:31;10.20;99.90
40340;DHT22;26044;50.864;20.658;2022-09-20T00:39:00;10.20;99.90
40340;DHT22;26044;50.864;20.658;2022-09-20T00:41:29;10.30;99.90
40340;DHT22;26044;50.864;20.658;2022-09-20T00:43:56;10.20;99.90
40340;DHT22;26044;50.864;20.658;2022-09-20T00:46:41;10.20;99.90
40340;DHT22;26044;50.864;20.658;2022-09-20T00:49:21;10.30;99.90
40340;DHT22;26044;50.864;20.658;2022-09-20T00:51:53;10.20;99.90
40340;DHT22;26044;50.864;20.658;2022-09-20T00:54:22;10.20;99.90
40340;DHT22;26044;50.864;20.658;2022-09-20T00:56:50;10.20;99.90
40340;DHT22;26044;50.864;20.658;2022-09-20T00:59:21;10.20;99.90
40340;DHT22;26044;50.864;20.658;2022-09-20T01:02:11;10.20;99.90
40340;DHT22;26044;50.864;20.658;2022-09-20T01:04:41;10.20;99.90
40340;DHT22;26044;50.864;20.658;2022-09-20T01:07:10;10.20;99.90
40340;DHT22;26044;50.864;20.658;2022-09-20T01:09:38;10.20;99.90
40340;DHT22;26044;50.864;20.658;2022-09-20T01:12:10;10.20;99.90
40340;DHT22;26044;50.864;20.658;2022-09-20T01:14:40;10.20;99.90
40340;DHT22;26044;50.864;20.658;2022-09-20T01:17:08;10.20;99.90
40340;DHT22;26044;50.864;20.658;2022-09-20T01:20:07;10.30;99.90
40340;DHT22;26044;50.864;20.658;2022-09-20T01:28:16;10.20;99.90
40340;DHT22;26044;50.864;20.658;2022-09-20T01:30:46;10.30;99.90
40340;DHT22;26044;50.864;20.658;2022-09-20T01:36:30;10.20;99.90
40340;DHT22;26044;50.864;20.658;2022-09-20T01:39:32;10.20;99.90
40340;DHT22;26044;50.864;20.658;2022-09-20T01:42:05;10.20;99.90
40340;DHT22;26044;50.864;20.658;2022-09-20T01:47:46;10.20;99.90
40340;DHT22;26044;50.864;20.658;2022-09-20T01:53:27;10.20;99.90
40340;DHT22;26044;50.864;20.658;2022-09-20T01:56:06;10.20;99.90
40340;DHT22;26044;50.864;20.658;2022-09-20T02:12:52;10.00;99.90
40340;DHT22;26044;50.864;20.658;2022-09-20T02:15:45;10.10;99.90
40340;DHT22;26044;50.864;20.658;2022-09-20T02:24:28;10.00;99.90
40340;DHT22;26044;50.864;20.658;2022-09-20T02:27:20;10.00;99.90
40340;DHT22;26044;50.864;20.658;2022-09-20T02:33:10;10.00;99.90
40340;DHT22;26044;50.864;20.658;2022-09-20T02:44:25;10.00;99.90
40340;DHT22;26044;50.864;20.658;2022-09-20T02:49:51;10.00;99.90
40340;DHT22;26044;50.864;20.658;2022-09-20T02:52:27;9.90;99.90
40340;DHT22;26044;50.864;20.658;2022-09-20T02:55:27;9.90;99.90
40340;DHT22;26044;50.864;20.658;2022-09-20T02:58:26;9.90;99.90
40340;DHT22;26044;50.864;20.658;2022-09-20T03:17:33;9.90;99.90
40340;DHT22;26044;50.864;20.658;2022-09-20T03:20:19;9.80;99.90
40340;DHT22;26044;50.864;20.658;2022-09-20T03:23:13;9.90;99.90
40340;DHT22;26044;50.864;20.658;2022-09-20T03:25:49;9.90;99.90
40340;DHT22;26044;50.864;20.658;2022-09-20T03:31:29;9.90;99.90
40340;DHT22;26044;50.864;20.658;2022-09-20T03:34:01;9.90;99.90
40340;DHT22;26044;50.864;20.658;2022-09-20T03:36:44;9.90;99.90
40340;DHT22;26044;50.864;20.658;2022-09-20T03:42:13;9.90;99.90
40340;DHT22;26044;50.864;20.658;2022-09-20T03:44:52;9.80;99.90
40340;DHT22;26044;50.864;20.658;2022-09-20T03:47:49;9.80;99.90
40340;DHT22;26044;50.864;20.658;2022-09-20T03:50:44;9.80;99.90
40340;DHT22;26044;50.864;20.658;2022-09-20T03:53:31;9.80;99.90
40340;DHT22;26044;50.864;20.658;2022-09-20T03:59:09;9.80;99.90
40340;DHT22;26044;50.864;20.658;2022-09-20T04:04:33;9.90;99.90
40340;DHT22;26044;50.864;20.658;2022-09-20T04:21:13;9.80;99.90
40340;DHT22;26044;50.864;20.658;2022-09-20T04:23:46;9.80;99.90
40340;DHT22;26044;50.864;20.658;2022-09-20T04:26:28;9.80;99.90
40340;DHT22;26044;50.864;20.658;2022-09-20T04:32:01;9.80;99.90
40340;DHT22;26044;50.864;20.658;2022-09-20T04:34:40;9.80;99.90
40340;DHT22;26044;50.864;20.658;2022-09-20T04:37:30;9.80;99.90
40340;DHT22;26044;50.864;20.658;2022-09-20T04:48:34;9.80;99.90
40340;DHT22;26044;50.864;20.658;2022-09-20T04:51:28;9.80;99.90
40340;DHT22;26044;50.864;20.658;2022-09-20T04:54:06;9.80;99.90
40340;DHT22;26044;50.864;20.658;2022-09-20T04:56:48;9.90;99.90
40340;DHT22;26044;50.864;20.658;2022-09-20T04:59:35;9.80;99.90
40340;DHT22;26044;50.864;20.658;2022-09-20T05:02:31;9.80;99.90
40340;DHT22;26044;50.864;20.658;2022-09-20T05:11:48;9.80;99.90
40340;DHT22;26044;50.864;20.658;2022-09-20T05:14:33;9.80;99.90
40340;DHT22;26044;50.864;20.658;2022-09-20T05:23:13;9.90;99.90
40340;DHT22;26044;50.864;20.658;2022-09-20T05:25:54;9.90;99.90
40340;DHT22;26044;50.864;20.658;2022-09-20T05:28:38;9.90;99.90
40340;DHT22;26044;50.864;20.658;2022-09-20T05:31:27;10.00;99.90
40340;DHT22;26044;50.864;20.658;2022-09-20T05:36:47;9.90;99.90
40340;DHT22;26044;50.864;20.658;2022-09-20T05:42:24;9.90;99.90
40340;DHT22;26044;50.864;20.658;2022-09-20T05:48:22;10.00;99.90
40340;DHT22;26044;50.864;20.658;2022-09-20T05:54:32;9.90;99.90
40340;DHT22;26044;50.864;20.658;2022-09-20T06:00:08;10.00;99.90
40340;DHT22;26044;50.864;20.658;2022-09-20T06:08:30;10.00;99.90
40340;DHT22;26044;50.864;20.658;2022-09-20T06:14:11;10.00;99.90
40340;DHT22;26044;50.864;20.658;2022-09-20T06:22:44;10.00;99.90
40340;DHT22;26044;50.864;20.658;2022-09-20T06:27:54;10.00;99.90
40340;DHT22;26044;50.864;20.658;2022-09-20T06:30:27;10.10;99.90
40340;DHT22;26044;50.864;20.658;2022-09-20T06:33:16;10.10;99.90
40340;DHT22;26044;50.864;20.658;2022-09-20T06:36:22;10.10;99.90
40340;DHT22;26044;50.864;20.658;2022-09-20T06:42:24;10.00;99.90
40340;DHT22;26044;50.864;20.658;2022-09-20T06:44:53;10.00;99.90
40340;DHT22;26044;50.864;20.658;2022-09-20T06:47:21;9.90;99.90
40340;DHT22;26044;50.864;20.658;2022-09-20T06:49:48;10.00;99.90
40340;DHT22;26044;50.864;20.658;2022-09-20T06:52:20;9.90;99.90
40340;DHT22;26044;50.864;20.658;2022-09-20T06:54:52;9.90;99.90
40340;DHT22;26044;50.864;20.658;2022-09-20T06:57:29;9.90;99.90
40340;DHT22;26044;50.864;20.658;2022-09-20T06:59:57;9.90;99.90
40340;DHT22;26044;50.864;20.658;2022-09-20T07:02:24;10.00;99.90
40340;DHT22;26044;50.864;20.658;2022-09-20T07:04:50;10.00;99.90
40340;DHT22;26044;50.864;20.658;2022-09-20T07:07:25;10.00;99.90
40340;DHT22;26044;50.864;20.658;2022-09-20T07:09:52;10.10;99.90
40340;DHT22;26044;50.864;20.658;2022-09-20T07:12:19;10.00;99.90
40340;DHT22;26044;50.864;20.658;2022-09-20T07:14:47;10.10;99.90
40340;DHT22;26044;50.864;20.658;2022-09-20T07:17:16;10.20;99.90
40340;DHT22;26044;50.864;20.658;2022-09-20T07:19:46;10.20;99.90
40340;DHT22;26044;50.864;20.658;2022-09-20T07:22:13;10.30;99.90
40340;DHT22;26044;50.864;20.658;2022-09-20T07:24:40;10.40;99.90
40340;DHT22;26044;50.864;20.658;2022-09-20T07:27:14;10.50;99.90
40340;DHT22;26044;50.864;20.658;2022-09-20T07:29:41;10.60;99.90
40340;DHT22;26044;50.864;20.658;2022-09-20T07:32:07;10.70;99.90
40340;DHT22;26044;50.864;20.658;2022-09-20T07:34:34;10.70;99.90
40340;DHT22;26044;50.864;20.658;2022-09-20T07:37:01;10.70;99.90
40340;DHT22;26044;50.864;20.658;2022-09-20T07:39:29;10.80;99.90
40340;DHT22;26044;50.864;20.658;2022-09-20T07:41:57;10.90;99.90
40340;DHT22;26044;50.864;20.658;2022-09-20T07:44:24;10.90;99.90
40340;DHT22;26044;50.864;20.658;2022-09-20T07:46:56;11.00;99.90
40340;DHT22;26044;50.864;20.658;2022-09-20T07:49:26;11.10;99.90
40340;DHT22;26044;50.864;20.658;2022-09-20T07:51:54;11.10;99.90
40340;DHT22;26044;50.864;20.658;2022-09-20T07:54:21;11.20;99.90
40340;DHT22;26044;50.864;20.658;2022-09-20T07:56:48;11.20;99.90
40340;DHT22;26044;50.864;20.658;2022-09-20T07:59:15;11.20;99.90
40340;DHT22;26044;50.864;20.658;2022-09-20T08:01:42;11.30;99.90
40340;DHT22;26044;50.864;20.658;2022-09-20T08:04:10;11.30;99.90
40340;DHT22;26044;50.864;20.658;2022-09-20T08:06:41;11.30;99.90
40340;DHT22;26044;50.864;20.658;2022-09-20T08:09:09;11.30;99.90
40340;DHT22;26044;50.864;20.658;2022-09-20T08:11:38;11.50;99.90
40340;DHT22;26044;50.864;20.658;2022-09-20T08:14:05;11.60;99.90
40340;DHT22;26044;50.864;20.658;2022-09-20T08:16:45;11.70;99.90
40340;DHT22;26044;50.864;20.658;2022-09-20T08:19:19;11.80;99.90
40340;DHT22;26044;50.864;20.658;2022-09-20T08:21:47;11.70;99.90
40340;DHT22;26044;50.864;20.658;2022-09-20T08:24:15;11.70;99.90
40340;DHT22;26044;50.864;20.658;2022-09-20T08:26:43;11.70;99.90
40340;DHT22;26044;50.864;20.658;2022-09-20T08:29:10;11.60;99.90
40340;DHT22;26044;50.864;20.658;2022-09-20T08:31:38;11.70;99.90
40340;DHT22;26044;50.864;20.658;2022-09-20T08:34:07;11.70;99.90
40340;DHT22;26044;50.864;20.658;2022-09-20T08:36:38;11.70;99.90
40340;DHT22;26044;50.864;20.658;2022-09-20T08:39:07;11.70;99.90
40340;DHT22;26044;50.864;20.658;2022-09-20T08:42:23;11.70;99.90
40340;DHT22;26044;50.864;20.658;2022-09-20T08:44:57;11.70;99.90
40340;DHT22;26044;50.864;20.658;2022-09-20T08:47:29;11.80;99.90
40340;DHT22;26044;50.864;20.658;2022-09-20T08:49:57;11.80;99.90
40340;DHT22;26044;50.864;20.658;2022-09-20T08:52:28;11.90;99.90
40340;DHT22;26044;50.864;20.658;2022-09-20T08:55:12;12.00;99.90
40340;DHT22;26044;50.864;20.658;2022-09-20T09:00:23;12.10;99.90
40340;DHT22;26044;50.864;20.658;2022-09-20T09:02:55;12.20;99.90
40340;DHT22;26044;50.864;20.658;2022-09-20T09:05:44;12.30;99.90
40340;DHT22;26044;50.864;20.658;2022-09-20T09:08:14;12.40;99.90
40340;DHT22;26044;50.864;20.658;2022-09-20T09:10:50;12.40;99.90
40340;DHT22;26044;50.864;20.658;2022-09-20T09:16:14;12.50;99.90
40340;DHT22;26044;50.864;20.658;2022-09-20T09:18:48;12.40;99.90
40340;DHT22;26044;50.864;20.658;2022-09-20T09:21:18;12.40;99.90
40340;DHT22;26044;50.864;20.658;2022-09-20T09:24:24;12.50;99.90
40340;DHT22;26044;50.864;20.658;2022-09-20T09:26:44;12.80;99.90
40340;DHT22;26044;50.864;20.658;2022-09-20T09:29:18;13.00;99.90
40340;DHT22;26044;50.864;20.658;2022-09-20T09:31:47;13.20;99.90
40340;DHT22;26044;50.864;20.658;2022-09-20T09:34:32;13.20;99.90
40340;DHT22;26044;50.864;20.658;2022-09-20T09:37:02;13.20;99.90
40340;DHT22;26044;50.864;20.658;2022-09-20T09:39:35;13.00;99.90
40340;DHT22;26044;50.864;20.658;2022-09-20T09:42:20;13.00;99.90
40340;DHT22;26044;50.864;20.658;2022-09-20T09:44:50;13.20;99.90
40340;DHT22;26044;50.864;20.658;2022-09-20T09:47:27;13.40;99.90
40340;DHT22;26044;50.864;20.658;2022-09-20T09:49:55;13.50;99.90
40340;DHT22;26044;50.864;20.658;2022-09-20T09:52:28;13.70;99.90
40340;DHT22;26044;50.864;20.658;2022-09-20T09:55:02;13.70;99.90
40340;DHT22;26044;50.864;20.658;2022-09-20T09:58:10;13.70;99.90
40340;DHT22;26044;50.864;20.658;2022-09-20T10:00:43;13.70;99.90
40340;DHT22;26044;50.864;20.658;2022-09-20T10:03:36;13.70;99.90
40340;DHT22;26044;50.864;20.658;2022-09-20T10:06:17;13.80;99.90
40340;DHT22;26044;50.864;20.658;2022-09-20T10:14:41;13.80;99.90
40340;DHT22;26044;50.864;20.658;2022-09-20T10:17:30;14.00;99.90
40340;DHT22;26044;50.864;20.658;2022-09-20T10:23:51;13.50;99.90
40340;DHT22;26044;50.864;20.658;2022-09-20T10:29:26;13.10;99.90
40340;DHT22;26044;50.864;20.658;2022-09-20T10:32:26;13.00;99.90
40340;DHT22;26044;50.864;20.658;2022-09-20T10:35:11;12.90;99.90
40340;DHT22;26044;50.864;20.658;2022-09-20T10:40:50;13.20;99.90
40340;DHT22;26044;50.864;20.658;2022-09-20T10:57:58;12.90;99.90
40340;DHT22;26044;50.864;20.658;2022-09-20T11:00:53;12.90;99.90
40340;DHT22;26044;50.864;20.658;2022-09-20T11:04:16;12.90;99.90
40340;DHT22;26044;50.864;20.658;2022-09-20T11:09:34;12.90;99.90
40340;DHT22;26044;50.864;20.658;2022-09-20T11:12:18;13.00;99.90
40340;DHT22;26044;50.864;20.658;2022-09-20T11:14:54;13.20;99.90
40340;DHT22;26044;50.864;20.658;2022-09-20T11:17:29;13.20;99.90
40340;DHT22;26044;50.864;20.658;2022-09-20T11:20:04;13.20;99.90
40340;DHT22;26044;50.864;20.658;2022-09-20T11:22:41;13.20;99.90
40340;DHT22;26044;50.864;20.658;2022-09-20T11:25:18;13.20;99.90
40340;DHT22;26044;50.864;20.658;2022-09-20T11:31:07;13.30;99.90
40340;DHT22;26044;50.864;20.658;2022-09-20T11:33:43;13.50;99.90
40340;DHT22;26044;50.864;20.658;2022-09-20T11:36:24;13.70;99.90
40340;DHT22;26044;50.864;20.658;2022-09-20T11:41:57;13.70;99.90
40340;DHT22;26044;50.864;20.658;2022-09-20T11:44:25;13.60;99.90
40340;DHT22;26044;50.864;20.658;2022-09-20T11:46:59;13.60;99.90
40340;DHT22;26044;50.864;20.658;2022-09-20T11:49:53;13.60;99.90
40340;DHT22;26044;50.864;20.658;2022-09-20T11:52:54;13.50;99.90
40340;DHT22;26044;50.864;20.658;2022-09-20T11:58:17;13.50;99.90
40340;DHT22;26044;50.864;20.658;2022-09-20T12:00:51;13.40;99.90
40340;DHT22;26044;50.864;20.658;2022-09-20T12:03:34;13.50;99.90
40340;DHT22;26044;50.864;20.658;2022-09-20T12:08:35;13.40;99.90
40340;DHT22;26044;50.864;20.658;2022-09-20T12:11:08;13.40;99.90
40340;DHT22;26044;50.864;20.658;2022-09-20T12:13:41;13.20;99.90
40340;DHT22;26044;50.864;20.658;2022-09-20T12:16:43;13.10;99.90
40340;DHT22;26044;50.864;20.658;2022-09-20T12:24:38;12.80;99.90
40340;DHT22;26044;50.864;20.658;2022-09-20T12:30:23;12.80;99.90
40340;DHT22;26044;50.864;20.658;2022-09-20T12:33:00;12.90;99.90
40340;DHT22;26044;50.864;20.658;2022-09-20T12:36:11;13.10;99.90
40340;DHT22;26044;50.864;20.658;2022-09-20T12:39:17;13.30;99.90
40340;DHT22;26044;50.864;20.658;2022-09-20T12:42:31;13.50;99.90
40340;DHT22;26044;50.864;20.658;2022-09-20T12:45:06;13.80;99.90
40340;DHT22;26044;50.864;20.658;2022-09-20T12:47:51;13.90;99.90
40340;DHT22;26044;50.864;20.658;2022-09-20T12:50:20;13.90;99.90
40340;DHT22;26044;50.864;20.658;2022-09-20T12:53:13;13.90;99.90
40340;DHT22;26044;50.864;20.658;2022-09-20T12:56:05;13.80;99.90
40340;DHT22;26044;50.864;20.658;2022-09-20T12:58:47;13.70;99.90
40340;DHT22;26044;50.864;20.658;2022-09-20T13:07:25;13.40;99.90
40340;DHT22;26044;50.864;20.658;2022-09-20T13:09:54;13.50;99.90
40340;DHT22;26044;50.864;20.658;2022-09-20T13:12:24;13.70;99.90
40340;DHT22;26044;50.864;20.658;2022-09-20T13:14:51;13.70;99.90
40340;DHT22;26044;50.864;20.658;2022-09-20T13:17:25;13.60;99.90
40340;DHT22;26044;50.864;20.658;2022-09-20T13:19:53;13.60;99.90
40340;DHT22;26044;50.864;20.658;2022-09-20T13:22:22;13.60;99.90
40340;DHT22;26044;50.864;20.658;2022-09-20T13:24:52;13.60;99.90
40340;DHT22;26044;50.864;20.658;2022-09-20T13:27:29;13.80;99.90
40340;DHT22;26044;50.864;20.658;2022-09-20T13:32:44;14.00;99.90
40340;DHT22;26044;50.864;20.658;2022-09-20T13:38:01;14.00;99.90
40340;DHT22;26044;50.864;20.658;2022-09-20T13:40:40;13.90;99.90
40340;DHT22;26044;50.864;20.658;2022-09-20T13:43:34;13.80;99.90
40340;DHT22;26044;50.864;20.658;2022-09-20T13:46:08;13.70;99.90
40340;DHT22;26044;50.864;20.658;2022-09-20T13:48:38;13.70;99.90
40340;DHT22;26044;50.864;20.658;2022-09-20T13:51:22;13.60;99.90
40340;DHT22;26044;50.864;20.658;2022-09-20T13:53:50;13.60;99.90
40340;DHT22;26044;50.864;20.658;2022-09-20T13:56:18;13.60;99.90
40340;DHT22;26044;50.864;20.658;2022-09-20T13:58:47;13.50;99.90
40340;DHT22;26044;50.864;20.658;2022-09-20T14:01:32;13.40;99.90
40340;DHT22;26044;50.864;20.658;2022-09-20T14:04:08;13.30;99.90
40340;DHT22;26044;50.864;20.658;2022-09-20T14:06:39;13.30;99.90
40340;DHT22;26044;50.864;20.658;2022-09-20T14:09:07;13.20;99.90
40340;DHT22;26044;50.864;20.658;2022-09-20T14:11:37;13.20;99.90
40340;DHT22;26044;50.864;20.658;2022-09-20T14:14:05;12.90;99.90
40340;DHT22;26044;50.864;20.658;2022-09-20T14:16:39;12.80;99.90
40340;DHT22;26044;50.864;20.658;2022-09-20T14:19:07;12.60;99.90
40340;DHT22;26044;50.864;20.658;2022-09-20T14:21:35;12.50;99.90
40340;DHT22;26044;50.864;20.658;2022-09-20T14:24:27;12.30;99.90
40340;DHT22;26044;50.864;20.658;2022-09-20T14:27:04;12.20;99.90
40340;DHT22;26044;50.864;20.658;2022-09-20T14:29:40;12.20;99.90
40340;DHT22;26044;50.864;20.658;2022-09-20T14:35:11;12.10;99.90
40340;DHT22;26044;50.864;20.658;2022-09-20T14:40:22;12.00;99.90
40340;DHT22;26044;50.864;20.658;2022-09-20T14:42:53;12.00;99.90
40340;DHT22;26044;50.864;20.658;2022-09-20T14:45:35;12.00;99.90
40340;DHT22;26044;50.864;20.658;2022-09-20T14:50:40;12.00;99.90
40340;DHT22;26044;50.864;20.658;2022-09-20T14:55:57;11.80;99.90
40340;DHT22;26044;50.864;20.658;2022-09-20T14:58:25;11.70;99.90
40340;DHT22;26044;50.864;20.658;2022-09-20T15:03:31;11.80;99.90
40340;DHT22;26044;50.864;20.658;2022-09-20T15:05:58;11.70;99.90
40340;DHT22;26044;50.864;20.658;2022-09-20T15:08:25;11.70;99.90
40340;DHT22;26044;50.864;20.658;2022-09-20T15:10:52;11.60;99.90
40340;DHT22;26044;50.864;20.658;2022-09-20T15:13:19;11.60;99.90
40340;DHT22;26044;50.864;20.658;2022-09-20T15:15:49;11.60;99.90
40340;DHT22;26044;50.864;20.658;2022-09-20T15:18:20;11.60;99.90
40340;DHT22;26044;50.864;20.658;2022-09-20T15:20:48;11.60;99.90
40340;DHT22;26044;50.864;20.658;2022-09-20T15:23:18;11.60;99.90
40340;DHT22;26044;50.864;20.658;2022-09-20T15:25:51;11.50;99.90
40340;DHT22;26044;50.864;20.658;2022-09-20T15:28:19;11.50;99.90
40340;DHT22;26044;50.864;20.658;2022-09-20T15:30:47;11.50;99.90
40340;DHT22;26044;50.864;20.658;2022-09-20T15:33:17;11.50;99.90
40340;DHT22;26044;50.864;20.658;2022-09-20T15:35:44;11.50;99.90
40340;DHT22;26044;50.864;20.658;2022-09-20T15:38:12;11.50;99.90
40340;DHT22;26044;50.864;20.658;2022-09-20T15:40:44;11.50;99.90
40340;DHT22;26044;50.864;20.658;2022-09-20T15:43:15;11.50;99.90
40340;DHT22;26044;50.864;20.658;2022-09-20T15:45:52;11.50;99.90
40340;DHT22;26044;50.864;20.658;2022-09-20T15:48:24;11.50;99.90
40340;DHT22;26044;50.864;20.658;2022-09-20T15:53:35;11.50;99.90
40340;DHT22;26044;50.864;20.658;2022-09-20T15:56:12;11.60;99.90
40340;DHT22;26044;50.864;20.658;2022-09-20T15:58:44;11.50;99.90
40340;DHT22;26044;50.864;20.658;2022-09-20T16:01:14;11.50;99.90
40340;DHT22;26044;50.864;20.658;2022-09-20T16:03:47;11.60;99.90
40340;DHT22;26044;50.864;20.658;2022-09-20T16:06:14;11.50;99.90
40340;DHT22;26044;50.864;20.658;2022-09-20T16:08:42;11.60;99.90
40340;DHT22;26044;50.864;20.658;2022-09-20T16:11:12;11.50;99.90
40340;DHT22;26044;50.864;20.658;2022-09-20T16:13:39;11.50;99.90
40340;DHT22;26044;50.864;20.658;2022-09-20T16:16:07;11.50;99.90
40340;DHT22;26044;50.864;20.658;2022-09-20T16:18:37;11.50;99.90
40340;DHT22;26044;50.864;20.658;2022-09-20T16:21:22;11.50;99.90
40340;DHT22;26044;50.864;20.658;2022-09-20T16:23:52;11.60;99.90
40340;DHT22;26044;50.864;20.658;2022-09-20T16:26:19;11.50;99.90
40340;DHT22;26044;50.864;20.658;2022-09-20T16:28:47;11.60;99.90
40340;DHT22;26044;50.864;20.658;2022-09-20T16:31:34;11.50;99.90
40340;DHT22;26044;50.864;20.658;2022-09-20T16:36:39;11.50;99.90
40340;DHT22;26044;50.864;20.658;2022-09-20T16:39:10;11.50;99.90
40340;DHT22;26044;50.864;20.658;2022-09-20T16:41:37;11.50;99.90
40340;DHT22;26044;50.864;20.658;2022-09-20T16:44:05;11.50;99.90
40340;DHT22;26044;50.864;20.658;2022-09-20T16:46:33;11.50;99.90
40340;DHT22;26044;50.864;20.658;2022-09-20T16:49:04;11.50;99.90
40340;DHT22;26044;50.864;20.658;2022-09-20T16:51:34;11.50;99.90
40340;DHT22;26044;50.864;20.658;2022-09-20T16:54:03;11.50;99.90
40340;DHT22;26044;50.864;20.658;2022-09-20T16:56:32;11.50;99.90
40340;DHT22;26044;50.864;20.658;2022-09-20T16:59:00;11.50;99.90
40340;DHT22;26044;50.864;20.658;2022-09-20T17:01:27;11.50;99.90
40340;DHT22;26044;50.864;20.658;2022-09-20T17:03:54;11.50;99.90
40340;DHT22;26044;50.864;20.658;2022-09-20T17:06:24;11.50;99.90
40340;DHT22;26044;50.864;20.658;2022-09-20T17:08:52;11.40;99.90
40340;DHT22;26044;50.864;20.658;2022-09-20T17:11:26;11.50;99.90
40340;DHT22;26044;50.864;20.658;2022-09-20T17:13:54;11.50;99.90
40340;DHT22;26044;50.864;20.658;2022-09-20T17:18:54;11.40;99.90
40340;DHT22;26044;50.864;20.658;2022-09-20T17:21:21;11.40;99.90
40340;DHT22;26044;50.864;20.658;2022-09-20T17:23:50;11.40;99.90
40340;DHT22;26044;50.864;20.658;2022-09-20T17:28:51;11.40;99.90
40340;DHT22;26044;50.864;20.658;2022-09-20T17:31:20;11.40;99.90
40340;DHT22;26044;50.864;20.658;2022-09-20T17:33:49;11.30;99.90
40340;DHT22;26044;50.864;20.658;2022-09-20T17:36:18;11.30;99.90
40340;DHT22;26044;50.864;20.658;2022-09-20T17:38:46;11.20;99.90
40340;DHT22;26044;50.864;20.658;2022-09-20T17:41:16;11.20;99.90
40340;DHT22;26044;50.864;20.658;2022-09-20T17:43:43;11.20;99.90
40340;DHT22;26044;50.864;20.658;2022-09-20T17:46:15;11.20;99.90
40340;DHT22;26044;50.864;20.658;2022-09-20T17:48:44;11.10;99.90
40340;DHT22;26044;50.864;20.658;2022-09-20T17:51:16;11.10;99.90
40340;DHT22;26044;50.864;20.658;2022-09-20T17:53:45;11.10;99.90
40340;DHT22;26044;50.864;20.658;2022-09-20T17:56:14;11.00;99.90
40340;DHT22;26044;50.864;20.658;2022-09-20T17:58:41;11.00;99.90
40340;DHT22;26044;50.864;20.658;2022-09-20T18:01:14;11.00;99.90
40340;DHT22;26044;50.864;20.658;2022-09-20T18:03:45;10.90;99.90
40340;DHT22;26044;50.864;20.658;2022-09-20T18:06:25;10.90;99.90
40340;DHT22;26044;50.864;20.658;2022-09-20T18:08:56;10.90;99.90
40340;DHT22;26044;50.864;20.658;2022-09-20T18:11:44;10.80;99.90
40340;DHT22;26044;50.864;20.658;2022-09-20T18:14:12;10.80;99.90
40340;DHT22;26044;50.864;20.658;2022-09-20T18:16:41;10.80;99.90
40340;DHT22;26044;50.864;20.658;2022-09-20T18:19:09;10.80;99.90
40340;DHT22;26044;50.864;20.658;2022-09-20T18:21:38;10.70;99.90
40340;DHT22;26044;50.864;20.658;2022-09-20T18:24:06;10.70;99.90
40340;DHT22;26044;50.864;20.658;2022-09-20T18:26:34;10.70;99.90
40340;DHT22;26044;50.864;20.658;2022-09-20T18:31:41;10.70;99.90
40340;DHT22;26044;50.864;20.658;2022-09-20T18:34:16;10.70;99.90
40340;DHT22;26044;50.864;20.658;2022-09-20T18:36:49;10.70;99.90
40340;DHT22;26044;50.864;20.658;2022-09-20T18:39:23;10.60;99.90
40340;DHT22;26044;50.864;20.658;2022-09-20T18:41:53;10.60;99.90
40340;DHT22;26044;50.864;20.658;2022-09-20T18:44:20;10.50;99.90
40340;DHT22;26044;50.864;20.658;2022-09-20T18:46:48;10.50;99.90
40340;DHT22;26044;50.864;20.658;2022-09-20T18:49:16;10.40;99.90
40340;DHT22;26044;50.864;20.658;2022-09-20T18:51:43;10.30;99.90
40340;DHT22;26044;50.864;20.658;2022-09-20T18:54:12;10.30;99.90
40340;DHT22;26044;50.864;20.658;2022-09-20T18:56:40;10.30;99.90
40340;DHT22;26044;50.864;20.658;2022-09-20T19:09:44;10.00;99.90
40340;DHT22;26044;50.864;20.658;2022-09-20T19:20:42;10.10;99.90
40340;DHT22;26044;50.864;20.658;2022-09-20T19:23:36;10.10;99.90
40340;DHT22;26044;50.864;20.658;2022-09-20T19:28:45;10.10;99.90
40340;DHT22;26044;50.864;20.658;2022-09-20T19:31:27;10.20;99.90
40340;DHT22;26044;50.864;20.658;2022-09-20T19:33:56;10.20;99.90
40340;DHT22;26044;50.864;20.658;2022-09-20T19:41:42;10.20;99.90
40340;DHT22;26044;50.864;20.658;2022-09-20T19:49:53;10.20;99.90
40340;DHT22;26044;50.864;20.658;2022-09-20T19:52:22;10.20;99.90
40340;DHT22;26044;50.864;20.658;2022-09-20T19:54:49;10.20;99.90
40340;DHT22;26044;50.864;20.658;2022-09-20T19:57:22;10.20;99.90
40340;DHT22;26044;50.864;20.658;2022-09-20T19:59:50;10.20;99.90
40340;DHT22;26044;50.864;20.658;2022-09-20T20:02:18;10.20;99.90
40340;DHT22;26044;50.864;20.658;2022-09-20T20:04:45;10.20;99.90
40340;DHT22;26044;50.864;20.658;2022-09-20T20:13:48;10.10;99.90
40340;DHT22;26044;50.864;20.658;2022-09-20T20:16:13;10.00;99.90
40340;DHT22;26044;50.864;20.658;2022-09-20T20:19:07;10.00;99.90
40340;DHT22;26044;50.864;20.658;2022-09-20T20:21:54;9.90;99.90
40340;DHT22;26044;50.864;20.658;2022-09-20T20:24:45;9.90;99.90
40340;DHT22;26044;50.864;20.658;2022-09-20T20:27:17;9.80;99.90
40340;DHT22;26044;50.864;20.658;2022-09-20T20:29:43;9.80;99.90
40340;DHT22;26044;50.864;20.658;2022-09-20T20:32:10;9.80;99.90
40340;DHT22;26044;50.864;20.658;2022-09-20T20:34:41;9.80;99.90
40340;DHT22;26044;50.864;20.658;2022-09-20T20:37:10;9.70;99.90
40340;DHT22;26044;50.864;20.658;2022-09-20T20:39:37;9.80;99.90
40340;DHT22;26044;50.864;20.658;2022-09-20T20:42:05;9.80;99.90
40340;DHT22;26044;50.864;20.658;2022-09-20T20:44:32;9.90;99.90
40340;DHT22;26044;50.864;20.658;2022-09-20T20:47:04;9.90;99.90
40340;DHT22;26044;50.864;20.658;2022-09-20T20:49:32;9.90;99.90
40340;DHT22;26044;50.864;20.658;2022-09-20T20:51:59;9.90;99.90